Time;durP1;ratioP1;P1;durP2;ratioP2;P2;SDS_P1;SDS_P2;PMS_P1;PMS_P2;Temp;Humidity;BMP_temperature;BMP_pressure;BME280_temperature;BME280_humidity;BME280_pressure;Samples;Min_cycle;Max_cycle;Signal;HPM_P1;HPM_P2
2022/01/08 00:00:58;;;;;;;;;3.75;1.25;;;;;;;;5038286;28;45392;-73
2022/01/08 00:03:24;;;;;;;;;2.00;1.00;;;;;;;;5038055;28;46100;-73
2022/01/08 00:05:49;;;;;;;;;1.00;1.00;;;;;;;;5037895;28;45553;-73
2022/01/08 00:08:15;;;;;;;;;3.00;1.75;;;;;;;;5041060;28;45548;-73
2022/01/08 00:10:41;;;;;;;;;0.50;0.00;;;;;;;;5038107;28;45501;-73
2022/01/08 00:13:06;;;;;;;;;3.25;1.50;;;;;;;;5037642;28;45307;-73
2022/01/08 00:15:32;;;;;;;;;3.00;1.00;;;;;;;;5037822;28;45375;-73
2022/01/08 00:17:58;;;;;;;;;2.50;1.00;;;;;;;;5038007;28;45492;-73
2022/01/08 00:20:23;;;;;;;;;2.25;1.50;;;;;;;;5037982;28;45311;-73
2022/01/08 00:22:52;;;;;;;;;1.00;1.00;;;;;;;;5037908;28;46041;-73
2022/01/08 00:25:17;;;;;;;;;2.00;1.00;;;;;;;;5037822;28;45558;-74
2022/01/08 00:27:43;;;;;;;;;1.75;1.75;;;;;;;;5037558;28;45451;-72
2022/01/08 00:30:08;;;;;;;;;2.00;2.00;;;;;;;;5036720;28;45358;-73
2022/01/08 00:32:34;;;;;;;;;2.00;1.00;;;;;;;;5035828;28;45521;-73
2022/01/08 00:34:59;;;;;;;;;1.00;1.00;;;;;;;;5036039;28;45438;-73
2022/01/08 00:37:25;;;;;;;;;1.75;1.00;;;;;;;;5036235;28;45763;-73
2022/01/08 00:39:50;;;;;;;;;4.25;2.50;;;;;;;;5037815;28;45536;-73
2022/01/08 00:42:15;;;;;;;;;1.00;1.00;;;;;;;;5037527;28;45282;-73
2022/01/08 00:44:41;;;;;;;;;3.25;2.00;;;;;;;;5037214;28;45521;-73
2022/01/08 00:47:06;;;;;;;;;1.00;1.00;;;;;;;;5037518;28;46203;-73
2022/01/08 00:49:32;;;;;;;;;2.75;2.00;;;;;;;;5037607;28;45354;-73
2022/01/08 00:51:57;;;;;;;;;2.25;2.00;;;;;;;;5037222;28;46033;-73
2022/01/08 00:54:23;;;;;;;;;1.75;1.75;;;;;;;;5037292;28;45227;-72
2022/01/08 00:56:48;;;;;;;;;1.50;1.50;;;;;;;;5037379;28;45758;-73
2022/01/08 00:59:14;;;;;;;;;2.00;1.00;;;;;;;;5037200;28;45459;-73
2022/01/08 01:01:39;;;;;;;;;4.25;2.00;;;;;;;;5036895;28;46004;-72
2022/01/08 01:04:04;;;;;;;;;2.00;1.00;;;;;;;;5037162;28;45364;-72
2022/01/08 01:06:30;;;;;;;;;2.50;1.00;;;;;;;;5035735;28;45324;-73
2022/01/08 01:08:55;;;;;;;;;4.00;2.00;;;;;;;;5037200;28;45233;-73
2022/01/08 01:11:21;;;;;;;;;3.00;2.00;;;;;;;;5037104;28;46450;-73
2022/01/08 01:13:46;;;;;;;;;1.00;1.00;;;;;;;;5037040;28;45279;-72
2022/01/08 01:16:11;;;;;;;;;1.00;1.00;;;;;;;;5037039;28;45377;-73
2022/01/08 01:18:37;;;;;;;;;2.00;1.00;;;;;;;;5037076;28;45519;-73
2022/01/08 01:21:03;;;;;;;;;4.00;1.00;;;;;;;;5035543;28;45554;-72
2022/01/08 01:23:34;;;;;;;;;2.75;2.75;;;;;;;;5036751;28;45427;-72
2022/01/08 01:26:03;;;;;;;;;3.50;1.00;;;;;;;;5037059;28;45336;-73
2022/01/08 01:47:17;;;;;;;;;2.00;1.50;;;;;;;;5039949;28;45346;-73
2022/01/08 01:49:44;;;;;;;;;2.50;1.00;;;;;;;;5040018;28;45489;-72
2022/01/08 01:52:11;;;;;;;;;1.00;1.00;;;;;;;;5040040;28;45405;-72
2022/01/08 01:54:37;;;;;;;;;3.25;1.00;;;;;;;;5039969;28;45393;-73
2022/01/08 01:57:03;;;;;;;;;1.00;1.00;;;;;;;;5039912;28;45399;-72
2022/01/08 01:59:30;;;;;;;;;1.50;1.00;;;;;;;;5040379;28;45407;-73
2022/01/08 02:01:55;;;;;;;;;2.00;1.00;;;;;;;;5039558;28;46061;-73
2022/01/08 02:04:21;;;;;;;;;3.00;1.00;;;;;;;;5039944;28;45434;-72
2022/01/08 02:06:46;;;;;;;;;1.00;1.00;;;;;;;;5039956;28;45785;-73
2022/01/08 02:09:12;;;;;;;;;1.00;1.00;;;;;;;;5039889;28;45450;-73
2022/01/08 02:11:56;;;;;;;;;1.25;0.75;;;;;;;;5039601;28;45530;-73
2022/01/08 02:14:21;;;;;;;;;2.00;1.00;;;;;;;;5039930;28;45455;-72
2022/01/08 02:16:47;;;;;;;;;1.75;1.00;;;;;;;;5039674;28;45291;-73
2022/01/08 02:19:12;;;;;;;;;2.00;0.75;;;;;;;;5039740;28;45491;-73
2022/01/08 02:21:37;;;;;;;;;1.00;1.00;;;;;;;;5039546;28;45448;-73
2022/01/08 02:24:03;;;;;;;;;3.25;1.00;;;;;;;;5038199;28;45488;-73
2022/01/08 02:26:28;;;;;;;;;1.25;1.00;;;;;;;;5039460;28;45404;-73
2022/01/08 02:28:53;;;;;;;;;2.25;2.00;;;;;;;;5039709;28;45327;-73
2022/01/08 02:31:20;;;;;;;;;2.00;1.00;;;;;;;;5039182;28;45288;-72
2022/01/08 02:33:45;;;;;;;;;1.00;1.00;;;;;;;;5039449;28;45244;-73
2022/01/08 02:36:11;;;;;;;;;3.00;1.00;;;;;;;;5039396;28;45476;-72
2022/01/08 02:38:36;;;;;;;;;1.00;0.67;;;;;;;;5039499;28;45334;-73
2022/01/08 02:41:04;;;;;;;;;1.00;1.00;;;;;;;;5039076;28;45975;-73
2022/01/08 02:43:33;;;;;;;;;1.25;0.00;;;;;;;;5038910;28;45426;-73
2022/01/08 02:45:58;;;;;;;;;0.00;0.00;;;;;;;;5039243;28;45152;-72
2022/01/08 02:48:23;;;;;;;;;2.67;1.00;;;;;;;;5039694;28;45479;-73
2022/01/08 02:50:49;;;;;;;;;2.00;1.00;;;;;;;;5038983;28;46071;-72
2022/01/08 02:53:14;;;;;;;;;2.00;1.00;;;;;;;;5037980;28;45488;-72
2022/01/08 02:55:40;;;;;;;;;1.25;0.25;;;;;;;;5039217;28;45419;-73
2022/01/08 02:58:05;;;;;;;;;2.67;1.00;;;;;;;;5039365;28;45418;-72
2022/01/08 03:00:30;;;;;;;;;1.00;1.00;;;;;;;;5038872;28;45352;-73
2022/01/08 03:02:56;;;;;;;;;1.75;1.00;;;;;;;;5039079;28;45300;-73
2022/01/08 03:05:21;;;;;;;;;0.00;0.00;;;;;;;;5038906;28;45403;-73
2022/01/08 03:07:48;;;;;;;;;1.75;1.50;;;;;;;;5038838;28;45358;-72
2022/01/08 03:10:16;;;;;;;;;0.75;0.75;;;;;;;;5038640;28;45601;-73
2022/01/08 03:12:42;;;;;;;;;1.00;1.00;;;;;;;;5038590;28;45466;-73
2022/01/08 03:15:09;;;;;;;;;0.75;0.75;;;;;;;;5038767;28;45363;-73
2022/01/08 03:17:34;;;;;;;;;2.00;0.33;;;;;;;;5039190;28;45281;-73
2022/01/08 03:20:05;;;;;;;;;2.00;0.75;;;;;;;;5038481;28;46087;-73
2022/01/08 03:22:30;;;;;;;;;2.50;0.75;;;;;;;;5038454;28;45377;-73
2022/01/08 03:24:55;;;;;;;;;1.00;0.00;;;;;;;;5039060;28;45411;-73
2022/01/08 03:27:21;;;;;;;;;1.50;1.00;;;;;;;;5038630;28;45540;-73
2022/01/08 03:29:46;;;;;;;;;1.00;1.00;;;;;;;;5038107;28;46029;-73
2022/01/08 03:32:12;;;;;;;;;1.33;1.00;;;;;;;;5038544;28;45420;-73
2022/01/08 03:34:37;;;;;;;;;1.00;1.00;;;;;;;;5038587;28;45373;-73
2022/01/08 03:37:03;;;;;;;;;1.00;0.00;;;;;;;;5038623;28;45435;-72
2022/01/08 03:39:28;;;;;;;;;0.50;0.00;;;;;;;;5038813;28;45418;-73
2022/01/08 03:41:53;;;;;;;;;0.75;0.00;;;;;;;;5038366;28;45993;-72
2022/01/08 03:44:19;;;;;;;;;1.00;1.00;;;;;;;;5038432;28;45687;-72
2022/01/08 03:46:44;;;;;;;;;1.00;1.00;;;;;;;;5038500;28;45295;-72
2022/01/08 03:51:35;;;;;;;;;2.75;1.00;;;;;;;;5038092;28;45415;-72
2022/01/08 03:54:01;;;;;;;;;2.00;1.25;;;;;;;;5038528;28;45415;-73
2022/01/08 03:56:27;;;;;;;;;1.50;1.00;;;;;;;;5038605;28;45403;-72
2022/01/08 03:58:52;;;;;;;;;1.25;1.25;;;;;;;;5037522;28;45272;-73
2022/01/08 04:01:18;;;;;;;;;1.00;1.00;;;;;;;;5037787;28;45496;-72
2022/01/08 04:03:43;;;;;;;;;1.00;1.00;;;;;;;;5037757;28;45256;-72
2022/01/08 04:06:08;;;;;;;;;0.75;0.75;;;;;;;;5036765;28;45324;-73
2022/01/08 04:08:34;;;;;;;;;2.00;1.00;;;;;;;;5037659;28;46542;-74
2022/01/08 04:11:00;;;;;;;;;1.00;1.00;;;;;;;;5038144;28;45528;-73
2022/01/08 04:13:29;;;;;;;;;2.00;1.00;;;;;;;;5037898;28;45263;-73
2022/01/08 04:15:59;;;;;;;;;1.75;1.00;;;;;;;;5038029;28;45477;-73
2022/01/08 04:18:24;;;;;;;;;1.50;1.00;;;;;;;;5037586;28;45434;-74
2022/01/08 04:23:21;;;;;;;;;0.25;0.25;;;;;;;;5037880;28;45689;-74
2022/01/08 04:25:47;;;;;;;;;2.00;1.00;;;;;;;;5037997;28;45390;-73
2022/01/08 04:28:12;;;;;;;;;0.75;0.75;;;;;;;;5037325;28;46099;-73
2022/01/08 04:30:38;;;;;;;;;1.00;1.00;;;;;;;;5037601;28;45450;-73
2022/01/08 04:33:03;;;;;;;;;0.00;0.00;;;;;;;;5037901;28;45466;-73
2022/01/08 04:35:28;;;;;;;;;3.50;1.00;;;;;;;;5037737;28;45310;-73
2022/01/08 04:37:54;;;;;;;;;0.75;0.25;;;;;;;;5037537;28;46996;-73
2022/01/08 04:40:19;;;;;;;;;1.50;0.25;;;;;;;;5037549;28;45415;-73
2022/01/08 04:42:44;;;;;;;;;1.00;0.25;;;;;;;;5037549;28;45501;-73
2022/01/08 04:45:10;;;;;;;;;0.00;0.00;;;;;;;;5037668;28;45544;-73
2022/01/08 04:47:36;;;;;;;;;0.75;0.00;;;;;;;;5036033;28;46353;-73
2022/01/08 04:50:01;;;;;;;;;1.00;0.00;;;;;;;;5037564;28;45416;-73
2022/01/08 04:52:28;;;;;;;;;0.25;0.25;;;;;;;;5037604;28;45715;-72
2022/01/08 04:54:54;;;;;;;;;1.25;0.00;;;;;;;;5037397;28;45521;-73
2022/01/08 04:57:19;;;;;;;;;0.00;0.00;;;;;;;;5037012;28;45981;-73
2022/01/08 04:59:44;;;;;;;;;1.25;0.00;;;;;;;;5037189;28;45473;-72
2022/01/08 05:02:10;;;;;;;;;0.00;0.00;;;;;;;;5037358;28;45738;-73
2022/01/08 05:04:35;;;;;;;;;1.00;0.00;;;;;;;;5037719;28;45738;-74
2022/01/08 05:07:01;;;;;;;;;2.75;0.50;;;;;;;;5037380;28;45349;-73
2022/01/08 05:09:26;;;;;;;;;1.00;1.00;;;;;;;;5037060;28;45299;-73
2022/01/08 05:11:51;;;;;;;;;1.50;0.00;;;;;;;;5037067;28;45284;-73
2022/01/08 05:14:17;;;;;;;;;1.00;0.00;;;;;;;;5037237;28;45270;-73
2022/01/08 05:16:44;;;;;;;;;2.00;0.00;;;;;;;;5038541;28;45461;-73
2022/01/08 05:19:09;;;;;;;;;2.25;1.00;;;;;;;;5039119;28;45423;-73
2022/01/08 05:21:38;;;;;;;;;0.50;0.00;;;;;;;;5040958;28;45282;-73
2022/01/08 05:24:03;;;;;;;;;1.00;0.75;;;;;;;;5041115;28;45242;-73
2022/01/08 05:26:29;;;;;;;;;0.00;0.00;;;;;;;;5040175;28;45411;-73
2022/01/08 05:28:54;;;;;;;;;0.75;0.75;;;;;;;;5040167;28;45437;-74
2022/01/08 05:31:22;;;;;;;;;2.25;1.00;;;;;;;;5040385;28;45520;-73
2022/01/08 05:33:48;;;;;;;;;2.00;0.50;;;;;;;;5040446;28;45402;-73
2022/01/08 05:36:13;;;;;;;;;1.00;1.00;;;;;;;;5040118;28;45695;-73
2022/01/08 05:38:39;;;;;;;;;0.00;0.00;;;;;;;;5040377;28;45449;-73
2022/01/08 05:41:04;;;;;;;;;0.50;0.00;;;;;;;;5040697;28;45461;-73
2022/01/08 05:43:29;;;;;;;;;3.00;1.00;;;;;;;;5040452;28;46223;-73
2022/01/08 05:45:56;;;;;;;;;2.00;0.00;;;;;;;;5040082;28;45426;-73
2022/01/08 05:48:22;;;;;;;;;1.00;1.00;;;;;;;;5039563;28;45470;-73
2022/01/08 05:50:49;;;;;;;;;2.00;1.00;;;;;;;;5039764;28;45549;-73
2022/01/08 05:53:15;;;;;;;;;0.00;0.00;;;;;;;;5040149;28;45261;-73
2022/01/08 05:55:40;;;;;;;;;1.00;1.00;;;;;;;;5039897;28;46132;-73
2022/01/08 05:58:06;;;;;;;;;2.00;1.00;;;;;;;;5040045;28;45427;-72
2022/01/08 06:00:31;;;;;;;;;2.00;0.67;;;;;;;;5039732;28;45208;-72
2022/01/08 06:02:56;;;;;;;;;2.00;0.50;;;;;;;;5039856;28;45331;-73
2022/01/08 06:05:22;;;;;;;;;1.00;0.25;;;;;;;;5039479;28;45956;-73
2022/01/08 06:07:47;;;;;;;;;2.75;1.00;;;;;;;;5040167;28;45428;-71
2022/01/08 06:10:13;;;;;;;;;9.75;4.75;;;;;;;;5039745;28;45527;-73
2022/01/08 06:12:38;;;;;;;;;1.00;0.25;;;;;;;;5040212;28;45347;-73
2022/01/08 06:15:04;;;;;;;;;2.75;2.00;;;;;;;;5039646;28;46449;-73
2022/01/08 06:17:29;;;;;;;;;1.50;1.00;;;;;;;;5040386;28;45450;-73
2022/01/08 06:19:55;;;;;;;;;3.00;1.00;;;;;;;;5040602;28;45664;-73
2022/01/08 06:22:20;;;;;;;;;2.25;1.00;;;;;;;;5039886;28;45279;-73
2022/01/08 06:24:45;;;;;;;;;3.75;1.25;;;;;;;;5039425;28;45445;-73
2022/01/08 06:27:11;;;;;;;;;1.25;1.00;;;;;;;;5044135;28;45584;-73
2022/01/08 06:29:36;;;;;;;;;3.75;1.00;;;;;;;;5047918;28;45484;-73
2022/01/08 06:32:02;;;;;;;;;2.00;1.00;;;;;;;;5047576;28;45548;-73
2022/01/08 06:34:27;;;;;;;;;2.50;1.50;;;;;;;;5058373;28;45422;-73
2022/01/08 06:36:52;;;;;;;;;1.75;0.75;;;;;;;;5057960;28;45445;-72
2022/01/08 06:39:18;;;;;;;;;1.00;0.25;;;;;;;;5059441;28;45503;-72
2022/01/08 06:41:43;;;;;;;;;3.00;1.75;;;;;;;;5059544;28;45382;-72
2022/01/08 06:44:09;;;;;;;;;8.50;3.75;;;;;;;;5059325;28;45428;-72
2022/01/08 06:46:34;;;;;;;;;21.00;18.00;;;;;;;;5058967;28;46284;-70
2022/01/08 06:48:59;;;;;;;;;1.00;1.00;;;;;;;;5059182;28;46002;-73
2022/01/08 06:51:25;;;;;;;;;2.25;2.00;;;;;;;;5059814;28;45326;-72
2022/01/08 06:53:50;;;;;;;;;3.00;2.50;;;;;;;;5059236;28;46129;-72
2022/01/08 06:56:17;;;;;;;;;2.50;2.00;;;;;;;;5058783;28;45465;-72
2022/01/08 06:58:43;;;;;;;;;1.00;1.00;;;;;;;;5059088;28;45373;-72
2022/01/08 07:01:08;;;;;;;;;1.00;1.00;;;;;;;;5059259;28;45346;-72
2022/01/08 07:03:34;;;;;;;;;8.75;4.50;;;;;;;;5059170;28;45467;-71
2022/01/08 07:05:59;;;;;;;;;6.00;5.50;;;;;;;;5058944;28;45436;-72
2022/01/08 07:08:24;;;;;;;;;5.50;4.25;;;;;;;;5059325;28;45309;-72
2022/01/08 07:10:50;;;;;;;;;1.75;1.75;;;;;;;;5059911;28;45316;-72
2022/01/08 07:13:15;;;;;;;;;4.00;2.75;;;;;;;;5059597;28;45975;-72
2022/01/08 07:15:40;;;;;;;;;2.50;1.00;;;;;;;;5059877;28;45459;-72
2022/01/08 07:18:06;;;;;;;;;4.50;3.75;;;;;;;;5060453;28;45346;-72
2022/01/08 07:20:31;;;;;;;;;2.00;2.00;;;;;;;;5062214;28;45285;-72
2022/01/08 07:22:59;;;;;;;;;1.00;0.75;;;;;;;;5063400;28;46042;-73
2022/01/08 07:25:24;;;;;;;;;0.00;0.00;;;;;;;;5060322;28;45511;-72
2022/01/08 07:27:50;;;;;;;;;0.00;0.00;;;;;;;;5061181;28;45514;-73
2022/01/08 07:30:15;;;;;;;;;1.00;1.00;;;;;;;;5062354;28;45218;-72
2022/01/08 07:32:41;;;;;;;;;2.50;2.00;;;;;;;;5061266;28;45594;-72
2022/01/08 07:35:07;;;;;;;;;11.50;9.75;;;;;;;;5060311;28;45354;-72
2022/01/08 07:37:32;;;;;;;;;44.25;34.75;;;;;;;;5060899;28;46036;-72
2022/01/08 07:39:58;;;;;;;;;13.25;9.75;;;;;;;;5059910;28;45403;-72
2022/01/08 07:42:23;;;;;;;;;19.25;16.50;;;;;;;;5059652;28;45551;-72
2022/01/08 07:44:49;;;;;;;;;9.25;8.25;;;;;;;;5058813;28;45527;-72
2022/01/08 07:47:15;;;;;;;;;5.75;4.75;;;;;;;;5042549;28;45272;-73
2022/01/08 07:49:41;;;;;;;;;10.75;9.50;;;;;;;;5058347;28;45525;-72
2022/01/08 07:52:06;;;;;;;;;15.75;13.75;;;;;;;;5061008;28;46157;-72
2022/01/08 07:54:32;;;;;;;;;12.75;8.00;;;;;;;;5058215;28;45512;-72
2022/01/08 07:56:57;;;;;;;;;9.00;4.25;;;;;;;;5059232;28;45528;-72
2022/01/08 07:59:22;;;;;;;;;4.00;3.00;;;;;;;;5062729;28;45317;-72
2022/01/08 08:01:48;;;;;;;;;8.25;5.25;;;;;;;;5062274;28;46194;-72
2022/01/08 08:04:13;;;;;;;;;4.00;4.00;;;;;;;;5063996;28;45357;-72
2022/01/08 08:06:43;;;;;;;;;4.00;3.50;;;;;;;;5064244;28;45315;-73
2022/01/08 08:09:08;;;;;;;;;8.25;6.75;;;;;;;;5062818;28;45387;-73
2022/01/08 08:11:33;;;;;;;;;10.00;8.75;;;;;;;;5066391;28;45331;-73
2022/01/08 08:13:59;;;;;;;;;9.50;8.50;;;;;;;;5058640;28;45503;-72
2022/01/08 08:16:24;;;;;;;;;1.00;1.00;;;;;;;;5061313;28;45437;-74
2022/01/08 08:18:50;;;;;;;;;3.00;3.00;;;;;;;;5060277;28;45392;-72
2022/01/08 08:21:15;;;;;;;;;4.75;4.75;;;;;;;;5060483;28;46134;-73
2022/01/08 08:23:40;;;;;;;;;3.00;2.75;;;;;;;;5058927;28;45440;-72
2022/01/08 08:26:06;;;;;;;;;13.50;11.75;;;;;;;;5058605;28;45346;-73
2022/01/08 08:28:31;;;;;;;;;11.00;9.00;;;;;;;;5057422;28;45442;-72
2022/01/08 08:30:56;;;;;;;;;11.75;10.50;;;;;;;;5058977;28;45400;-73
2022/01/08 08:33:22;;;;;;;;;5.00;3.00;;;;;;;;5060028;28;45378;-72
2022/01/08 08:35:47;;;;;;;;;9.00;8.75;;;;;;;;5046882;28;45771;-73
2022/01/08 08:38:13;;;;;;;;;9.25;8.25;;;;;;;;5045960;28;45596;-72
2022/01/08 08:40:38;;;;;;;;;2.25;2.25;;;;;;;;5059118;28;45706;-73
2022/01/08 08:43:04;;;;;;;;;6.00;6.00;;;;;;;;5060299;28;45331;-73
2022/01/08 08:45:29;;;;;;;;;6.25;6.25;;;;;;;;5056746;28;45515;-73
2022/01/08 08:47:56;;;;;;;;;14.75;12.00;;;;;;;;5059509;28;45829;-73
2022/01/08 08:50:23;;;;;;;;;11.00;10.00;;;;;;;;5059347;27;45509;-73
2022/01/08 08:52:50;;;;;;;;;12.75;9.50;;;;;;;;5059462;28;45588;-73
2022/01/08 08:55:18;;;;;;;;;12.00;11.50;;;;;;;;5063002;28;45428;-73
2022/01/08 08:57:44;;;;;;;;;16.00;13.75;;;;;;;;5056980;28;45557;-75
2022/01/08 09:00:10;;;;;;;;;22.00;19.75;;;;;;;;5060885;28;45396;-73
2022/01/08 09:02:36;;;;;;;;;18.25;17.75;;;;;;;;5058241;28;45353;-73
2022/01/08 09:05:08;;;;;;;;;18.75;17.25;;;;;;;;5057959;28;45421;-75
2022/01/08 09:07:34;;;;;;;;;9.50;6.00;;;;;;;;5058784;28;45365;-73
2022/01/08 09:10:00;;;;;;;;;18.25;16.25;;;;;;;;5058263;28;46151;-73
2022/01/08 09:12:26;;;;;;;;;21.25;20.00;;;;;;;;5058196;28;45456;-74
2022/01/08 09:14:51;;;;;;;;;27.50;24.00;;;;;;;;5059505;28;45441;-74
2022/01/08 09:17:17;;;;;;;;;17.00;15.75;;;;;;;;5060452;28;45372;-74
2022/01/08 09:19:43;;;;;;;;;29.50;27.25;;;;;;;;5060985;28;45419;-75
2022/01/08 09:22:09;;;;;;;;;14.50;13.75;;;;;;;;5062236;28;45425;-74
2022/01/08 09:24:36;;;;;;;;;7.75;6.25;;;;;;;;5062301;28;45657;-74
2022/01/08 09:27:01;;;;;;;;;9.00;7.00;;;;;;;;5059016;28;45444;-73
2022/01/08 09:29:28;;;;;;;;;10.25;10.00;;;;;;;;5056176;28;46094;-73
2022/01/08 09:31:55;;;;;;;;;14.75;12.50;;;;;;;;5063029;28;45581;-74
2022/01/08 09:34:21;;;;;;;;;15.50;11.25;;;;;;;;5056571;28;45344;-73
2022/01/08 09:36:47;;;;;;;;;21.50;15.75;;;;;;;;5027824;27;45475;-73
2022/01/08 09:39:13;;;;;;;;;4.25;4.25;;;;;;;;5061872;28;46205;-73
2022/01/08 09:41:38;;;;;;;;;6.00;4.00;;;;;;;;5056422;28;45529;-74
2022/01/08 09:44:04;;;;;;;;;9.00;7.00;;;;;;;;5056051;28;45700;-74
2022/01/08 09:46:29;;;;;;;;;6.00;5.00;;;;;;;;5056495;28;45603;-74
2022/01/08 09:48:54;;;;;;;;;7.00;6.25;;;;;;;;5057176;28;45393;-74
2022/01/08 09:51:20;;;;;;;;;6.75;6.00;;;;;;;;5056426;28;45685;-73
2022/01/08 09:53:46;;;;;;;;;4.25;4.00;;;;;;;;5057203;27;45799;-74
2022/01/08 09:56:12;;;;;;;;;9.50;7.50;;;;;;;;5058089;28;45973;-74
2022/01/08 09:58:37;;;;;;;;;3.25;3.25;;;;;;;;5057226;28;45547;-73
2022/01/08 10:01:20;;;;;;;;;15.25;13.50;;;;;;;;5056438;28;45435;-73
2022/01/08 10:03:45;;;;;;;;;14.00;13.00;;;;;;;;5052878;28;45588;-73
2022/01/08 10:06:10;;;;;;;;;12.75;11.00;;;;;;;;5046965;28;45326;-73
2022/01/08 10:08:36;;;;;;;;;4.00;2.75;;;;;;;;5050127;28;45299;-73
2022/01/08 10:11:03;;;;;;;;;3.00;2.00;;;;;;;;5049853;28;45407;-73
2022/01/08 10:13:31;;;;;;;;;4.00;4.00;;;;;;;;5047319;28;45657;-72
2022/01/08 10:18:44;;;;;;;;;5.00;4.00;;;;;;;;5050620;28;45415;-74
2022/01/08 10:21:29;;;;;;;;;4.00;3.00;;;;;;;;5037378;28;45473;-73
2022/01/08 10:23:56;;;;;;;;;3.00;3.00;;;;;;;;5050796;28;45567;-73
2022/01/08 10:26:24;;;;;;;;;2.00;1.67;;;;;;;;5046907;28;45856;-74
2022/01/08 10:28:53;;;;;;;;;6.33;4.33;;;;;;;;5047882;28;45406;-71
2022/01/08 10:31:25;;;;;;;;;16.50;14.75;;;;;;;;5048788;28;45519;-73
2022/01/08 10:34:04;;;;;;;;;24.00;21.75;;;;;;;;5047585;28;45425;-72
2022/01/08 10:36:30;;;;;;;;;3.33;3.00;;;;;;;;5050138;28;45329;-72
2022/01/08 10:38:57;;;;;;;;;2.00;1.67;;;;;;;;5049042;28;45459;-73
2022/01/08 10:41:23;;;;;;;;;11.25;9.00;;;;;;;;5050843;28;45385;-72
2022/01/08 10:44:03;;;;;;;;;19.25;18.00;;;;;;;;5061384;28;45309;-73
2022/01/08 10:46:29;;;;;;;;;14.00;13.25;;;;;;;;5061574;28;45403;-73
2022/01/08 10:48:54;;;;;;;;;5.50;5.00;;;;;;;;5059793;28;45854;-73
2022/01/08 10:51:23;;;;;;;;;9.00;7.00;;;;;;;;5061360;28;45349;-73
2022/01/08 10:53:51;;;;;;;;;8.50;6.50;;;;;;;;5059837;28;45634;-73
2022/01/08 10:56:21;;;;;;;;;7.25;7.25;;;;;;;;5060135;28;45419;-74
2022/01/08 10:58:52;;;;;;;;;6.25;5.00;;;;;;;;5057792;28;46763;-72
2022/01/08 11:01:35;;;;;;;;;1.00;1.00;;;;;;;;5058705;28;45595;-73
2022/01/08 11:04:00;;;;;;;;;9.75;9.75;;;;;;;;5058729;28;45590;-73
2022/01/08 11:06:25;;;;;;;;;4.25;3.00;;;;;;;;5059123;28;45365;-73
2022/01/08 11:08:58;;;;;;;;;8.75;8.00;;;;;;;;5059086;28;45475;-74
2022/01/08 11:11:29;;;;;;;;;4.00;4.00;;;;;;;;5059201;28;45693;-75
2022/01/08 11:13:55;;;;;;;;;15.00;13.75;;;;;;;;5057777;28;45444;-74
2022/01/08 11:16:20;;;;;;;;;6.25;5.25;;;;;;;;5055980;27;45535;-73
2022/01/08 11:18:46;;;;;;;;;2.67;2.67;;;;;;;;5057238;28;46048;-73
2022/01/08 11:21:11;;;;;;;;;5.00;4.33;;;;;;;;5056257;28;45471;-73
2022/01/08 11:23:37;;;;;;;;;4.00;3.00;;;;;;;;5057679;28;45434;-74
2022/01/08 11:26:03;;;;;;;;;3.00;2.67;;;;;;;;5057685;28;45545;-74
2022/01/08 11:28:34;;;;;;;;;4.00;4.00;;;;;;;;5057748;28;46039;-73
2022/01/08 11:31:01;;;;;;;;;2.67;2.67;;;;;;;;5057968;28;45395;-73
2022/01/08 11:33:29;;;;;;;;;5.00;5.00;;;;;;;;5057723;28;45460;-74
2022/01/08 11:35:55;;;;;;;;;4.33;4.00;;;;;;;;5058312;28;45457;-74
2022/01/08 11:38:22;;;;;;;;;1.00;1.00;;;;;;;;5057409;28;45959;-74
2022/01/08 11:40:50;;;;;;;;;1.00;1.00;;;;;;;;5057628;28;45291;-73
2022/01/08 11:43:16;;;;;;;;;1.00;1.00;;;;;;;;5057416;28;45503;-73
2022/01/08 11:46:03;;;;;;;;;1.67;0.00;;;;;;;;5057378;28;45243;-73
2022/01/08 11:48:32;;;;;;;;;2.67;2.67;;;;;;;;5057025;28;46083;-74
2022/01/08 11:50:59;;;;;;;;;2.00;2.00;;;;;;;;5057142;28;45507;-74
2022/01/08 11:53:24;;;;;;;;;3.00;2.00;;;;;;;;5057595;28;45509;-74
2022/01/08 11:55:53;;;;;;;;;4.33;3.33;;;;;;;;5057604;28;45597;-73
2022/01/08 11:58:23;;;;;;;;;1.33;1.00;;;;;;;;5057256;28;46125;-73
2022/01/08 12:00:59;;;;;;;;;1.33;1.33;;;;;;;;5057492;27;45318;-73
2022/01/08 12:03:32;;;;;;;;;1.00;1.00;;;;;;;;5056795;28;45421;-73
2022/01/08 12:05:58;;;;;;;;;2.33;1.33;;;;;;;;5057752;28;45519;-73
2022/01/08 12:08:45;;;;;;;;;2.00;1.00;;;;;;;;5058309;28;46286;-74
2022/01/08 12:11:12;;;;;;;;;0.00;0.00;;;;;;;;5060796;28;45397;-75
2022/01/08 12:13:44;;;;;;;;;1.00;1.00;;;;;;;;5058087;28;45553;-74
2022/01/08 12:16:28;;;;;;;;;2.00;2.00;;;;;;;;5059579;28;45583;-74
2022/01/08 12:18:53;;;;;;;;;2.00;2.00;;;;;;;;5058324;28;45536;-73
2022/01/08 12:21:38;;;;;;;;;0.67;0.33;;;;;;;;5057357;28;45491;-74
2022/01/08 12:24:39;;;;;;;;;0.00;0.00;;;;;;;;5057055;28;45441;-75
2022/01/08 12:27:19;;;;;;;;;0.00;0.00;;;;;;;;4984771;28;45585;-73
2022/01/08 12:29:44;;;;;;;;;2.33;1.00;;;;;;;;5049537;28;45515;-73
2022/01/08 12:32:32;;;;;;;;;2.00;2.00;;;;;;;;5056655;28;45651;-73
2022/01/08 12:35:03;;;;;;;;;0.00;0.00;;;;;;;;5058238;28;45412;-73
2022/01/08 12:37:39;;;;;;;;;2.67;1.33;;;;;;;;5057980;28;45378;-72
2022/01/08 12:40:06;;;;;;;;;4.00;2.67;;;;;;;;5057046;28;45605;-73
2022/01/08 12:42:32;;;;;;;;;1.00;0.00;;;;;;;;5057764;27;45422;-73
2022/01/08 12:45:02;;;;;;;;;5.33;4.67;;;;;;;;5056638;28;45730;-73
2022/01/08 12:47:47;;;;;;;;;7.33;7.00;;;;;;;;5058177;28;45426;-73
2022/01/08 12:50:16;;;;;;;;;6.67;6.33;;;;;;;;5057351;28;46656;-74
2022/01/08 12:52:59;;;;;;;;;7.00;7.00;;;;;;;;5059319;28;45509;-73
2022/01/08 12:55:25;;;;;;;;;18.33;16.00;;;;;;;;5057054;28;45502;-73
2022/01/08 12:57:50;;;;;;;;;8.00;7.33;;;;;;;;5057284;28;45517;-73
2022/01/08 13:00:16;;;;;;;;;8.00;7.33;;;;;;;;5056054;28;46039;-72
2022/01/08 13:02:47;;;;;;;;;3.67;2.33;;;;;;;;5056149;28;45407;-72
2022/01/08 13:05:13;;;;;;;;;4.33;4.00;;;;;;;;5059181;28;45384;-70
2022/01/08 13:07:51;;;;;;;;;2.00;2.00;;;;;;;;5061045;28;45401;-72
2022/01/08 13:10:17;;;;;;;;;3.33;3.00;;;;;;;;5058277;28;46415;-72
2022/01/08 13:12:42;;;;;;;;;5.00;4.00;;;;;;;;5058538;28;45506;-72
2022/01/08 13:15:08;;;;;;;;;5.67;5.67;;;;;;;;5059046;28;45486;-72
2022/01/08 13:17:34;;;;;;;;;2.33;2.33;;;;;;;;5060000;28;45512;-71
2022/01/08 13:20:03;;;;;;;;;6.00;5.00;;;;;;;;5060261;28;46416;-73
2022/01/08 13:22:30;;;;;;;;;7.33;6.00;;;;;;;;5063331;28;45212;-74
2022/01/08 13:24:55;;;;;;;;;14.00;13.00;;;;;;;;5062853;28;45531;-74
2022/01/08 13:27:24;;;;;;;;;4.67;4.00;;;;;;;;5064844;28;45258;-73
2022/01/08 13:29:51;;;;;;;;;3.67;3.67;;;;;;;;5062942;28;45585;-72
2022/01/08 13:32:18;;;;;;;;;1.00;1.00;;;;;;;;5059070;28;45449;-71
2022/01/08 13:34:45;;;;;;;;;5.00;5.00;;;;;;;;5057941;28;45496;-71
2022/01/08 13:37:12;;;;;;;;;5.00;3.33;;;;;;;;5057659;28;45456;-72
2022/01/08 13:39:50;;;;;;;;;5.00;5.00;;;;;;;;5062505;28;45535;-72
2022/01/08 13:42:16;;;;;;;;;5.00;3.00;;;;;;;;5069417;28;45549;-72
2022/01/08 13:44:43;;;;;;;;;1.00;0.67;;;;;;;;5065889;27;45351;-71
2022/01/08 13:47:22;;;;;;;;;2.00;2.00;;;;;;;;5064230;28;45482;-72
2022/01/08 13:49:49;;;;;;;;;1.00;1.00;;;;;;;;5063431;28;45358;-71
2022/01/08 13:52:19;;;;;;;;;2.00;2.00;;;;;;;;5064991;28;45610;-72
2022/01/08 13:54:45;;;;;;;;;1.00;0.33;;;;;;;;5066165;28;45303;-73
2022/01/08 13:57:11;;;;;;;;;5.00;4.00;;;;;;;;5063721;28;45431;-71
2022/01/08 13:59:36;;;;;;;;;5.00;4.00;;;;;;;;5057708;27;46075;-70
2022/01/08 14:02:02;;;;;;;;;2.00;1.00;;;;;;;;5058028;28;45380;-70
2022/01/08 14:04:29;;;;;;;;;3.33;3.00;;;;;;;;5058038;28;45609;-71
2022/01/08 14:06:57;;;;;;;;;1.00;1.00;;;;;;;;5059456;28;45576;-71
2022/01/08 14:09:23;;;;;;;;;3.00;2.00;;;;;;;;5059001;28;46382;-70
2022/01/08 14:11:49;;;;;;;;;1.00;1.00;;;;;;;;5059721;28;45829;-70
2022/01/08 14:14:19;;;;;;;;;1.00;1.00;;;;;;;;5059755;28;45447;-71
2022/01/08 14:16:45;;;;;;;;;4.00;4.00;;;;;;;;5059434;28;45372;-72
2022/01/08 14:19:15;;;;;;;;;3.00;3.00;;;;;;;;5058795;28;45376;-71
2022/01/08 14:22:01;;;;;;;;;2.00;1.00;;;;;;;;5057464;28;45521;-71
2022/01/08 14:24:32;;;;;;;;;5.00;5.00;;;;;;;;5058977;28;45403;-70
2022/01/08 14:27:03;;;;;;;;;4.00;3.33;;;;;;;;5059919;28;45851;-71
2022/01/08 14:29:30;;;;;;;;;4.00;2.00;;;;;;;;5057553;28;46556;-71
2022/01/08 14:31:56;;;;;;;;;2.00;2.00;;;;;;;;5058650;28;45350;-71
2022/01/08 14:34:22;;;;;;;;;3.00;2.00;;;;;;;;5058290;28;45517;-71
2022/01/08 14:36:53;;;;;;;;;2.33;1.00;;;;;;;;5058684;27;45517;-71
2022/01/08 14:39:41;;;;;;;;;2.33;2.00;;;;;;;;5058516;27;45294;-72
2022/01/08 14:42:28;;;;;;;;;6.67;6.67;;;;;;;;5060607;28;45605;-73
2022/01/08 14:44:58;;;;;;;;;6.33;6.00;;;;;;;;5060524;28;45564;-72
2022/01/08 14:47:32;;;;;;;;;6.67;6.00;;;;;;;;5062117;28;45456;-73
2022/01/08 14:49:58;;;;;;;;;4.00;4.00;;;;;;;;5060888;28;45499;-73
2022/01/08 14:52:24;;;;;;;;;11.00;10.00;;;;;;;;5060169;27;45443;-73
2022/01/08 14:54:49;;;;;;;;;2.67;2.33;;;;;;;;5059427;28;45377;-73
2022/01/08 14:57:15;;;;;;;;;3.33;2.00;;;;;;;;5058977;28;45404;-72
2022/01/08 14:59:40;;;;;;;;;2.33;2.00;;;;;;;;5060039;28;45494;-72
2022/01/08 15:02:05;;;;;;;;;9.00;9.00;;;;;;;;5059309;28;45276;-72
2022/01/08 15:04:33;;;;;;;;;5.00;5.00;;;;;;;;5059357;28;45506;-72
2022/01/08 15:06:58;;;;;;;;;5.33;4.67;;;;;;;;5058069;28;45286;-73